Time;durP1;ratioP1;P1;durP2;ratioP2;P2;SDS_P1;SDS_P2;PMS_P1;PMS_P2;Temp;Humidity;BMP_temperature;BMP_pressure;BME280_temperature;BME280_humidity;BME280_pressure;Samples;Min_cycle;Max_cycle;Signal;HPM_P1;HPM_P2
2022/06/03 00:00:08;;;;;;;7.10;6.50;;;;;;;15.31;nan;99083.22;4989121;28;20100;-60
2022/06/03 00:02:52;;;;;;;6.72;6.13;;;;;;;15.30;nan;99083.25;4992187;28;20052;-62
2022/06/03 00:05:33;;;;;;;7.22;6.63;;;;;;;15.32;nan;99073.75;4990760;28;20026;-62
2022/06/03 00:08:18;;;;;;;6.65;6.05;;;;;;;15.32;nan;99071.97;4989450;28;20115;-61
2022/06/03 00:11:08;;;;;;;6.32;5.82;;;;;;;15.32;nan;99077.13;4993343;28;20513;-62
2022/06/03 00:14:19;;;;;;;6.60;6.13;;;;;;;15.32;nan;99071.97;4989084;28;20065;-61
2022/06/03 00:16:59;;;;;;;6.30;5.72;;;;;;;15.31;nan;99077.22;4937771;29;20095;-62
2022/06/03 00:19:43;;;;;;;6.95;6.45;;;;;;;15.32;nan;99066.81;4938853;29;20059;-61
2022/06/03 00:22:28;;;;;;;6.70;6.10;;;;;;;15.28;nan;99074.69;4940939;29;20083;-61
2022/06/03 00:25:29;;;;;;;7.57;6.63;;;;;;;15.26;nan;99085.09;4938072;29;20086;-62
2022/06/03 00:28:12;;;;;;;7.38;6.70;;;;;;;15.18;nan;99075.88;4939065;29;20050;-62
2022/06/03 00:30:53;;;;;;;7.30;6.70;;;;;;;15.28;nan;99097.94;4942046;29;20603;-62
2022/06/03 00:33:43;;;;;;;6.82;6.32;;;;;;;15.26;nan;99087.69;4937866;29;20055;-61
2022/06/03 00:36:11;;;;;;;7.43;6.82;;;;;;;15.18;nan;99093.97;4938754;29;20137;-62
2022/06/03 00:38:55;;;;;;;6.28;5.70;;;;;;;15.07;nan;99083.94;4940857;28;20441;-61
2022/06/03 00:41:56;;;;;;;7.15;6.50;;;;;;;15.08;nan;99089.06;4935877;29;20051;-61
2022/06/03 00:44:55;;;;;;;6.05;5.40;;;;;;;15.05;nan;99083.16;4937641;29;20035;-61
2022/06/03 00:47:32;;;;;;;7.20;6.40;;;;;;;15.05;nan;99084.00;4937050;29;20075;-61
2022/06/03 00:50:35;;;;;;;7.43;6.72;;;;;;;15.06;nan;99082.28;4942555;29;20102;-61
2022/06/03 00:53:16;;;;;;;6.57;6.03;;;;;;;15.08;nan;99078.75;4955935;28;20511;-61
2022/06/03 00:55:41;;;;;;;6.75;6.25;;;;;;;15.04;nan;99084.03;4991428;28;20121;-61
2022/06/03 00:58:38;;;;;;;6.93;6.30;;;;;;;15.12;nan;99084.66;4993564;28;20478;-61
2022/06/03 01:01:03;;;;;;;6.30;5.78;;;;;;;15.10;nan;99089.03;4989948;28;20079;-61
2022/06/03 01:03:40;;;;;;;7.45;6.10;;;;;;;15.14;nan;99092.38;4988956;28;20050;-61
2022/06/03 01:06:21;;;;;;;7.38;5.78;;;;;;;15.13;nan;99088.94;4988212;28;20082;-61
2022/06/03 01:08:47;;;;;;;7.55;6.82;;;;;;;15.11;nan;99085.53;4988566;28;20117;-62
2022/06/03 01:11:18;;;;;;;7.53;5.55;;;;;;;15.09;nan;99080.44;4986413;28;20034;-62
2022/06/03 01:14:05;;;;;;;6.15;5.50;;;;;;;15.17;nan;99087.09;4987921;28;20432;-65
2022/06/03 01:16:48;;;;;;;6.03;5.50;;;;;;;15.19;nan;99075.81;4988616;28;20045;-62
2022/06/03 01:19:29;;;;;;;6.45;5.75;;;;;;;15.23;nan;99080.03;4989519;28;20038;-62
2022/06/03 01:22:00;;;;;;;6.07;5.45;;;;;;;15.28;nan;99091.03;4988046;28;20125;-62
2022/06/03 01:24:37;;;;;;;6.15;5.65;;;;;;;15.23;nan;99085.19;4992137;28;20030;-62
2022/06/03 01:27:41;;;;;;;7.03;6.43;;;;;;;15.27;nan;99079.03;4992239;28;20121;-62
2022/06/03 01:30:14;;;;;;;6.43;5.82;;;;;;;15.24;nan;99076.53;4988331;28;20076;-62
2022/06/03 01:32:57;;;;;;;5.72;5.32;;;;;;;15.25;nan;99078.22;4984011;28;20054;-62
2022/06/03 01:35:54;;;;;;;6.40;5.95;;;;;;;15.30;nan;99078.94;4987491;28;20050;-62
2022/06/03 01:38:50;;;;;;;6.50;6.00;;;;;;;15.32;nan;99074.56;4988875;28;21091;-62
2022/06/03 01:41:18;;;;;;;7.40;6.60;;;;;;;15.32;nan;99074.56;4988250;28;20049;-62
2022/06/03 01:44:11;;;;;;;6.63;6.03;;;;;;;15.33;nan;99071.09;4987750;28;20047;-62
2022/06/03 01:46:45;;;;;;;6.82;6.13;;;;;;;15.28;nan;99069.53;4988684;28;20039;-62
2022/06/03 01:49:29;;;;;;;6.80;6.20;;;;;;;15.39;nan;99070.91;4990209;28;20043;-62
2022/06/03 01:52:29;;;;;;;9.38;6.50;;;;;;;15.41;nan;99061.34;4990442;28;20124;-62
2022/06/03 01:55:32;;;;;;;8.90;5.72;;;;;;;15.38;nan;99058.88;4992474;28;20030;-62
2022/06/03 01:58:22;;;;;;;6.32;5.82;;;;;;;15.33;nan;99062.50;4993184;28;20034;-62
2022/06/03 02:01:00;;;;;;;6.72;6.13;;;;;;;15.30;nan;99060.00;4992389;28;20069;-62
2022/06/03 02:03:47;;;;;;;7.78;7.00;;;;;;;15.25;nan;99056.72;4995753;28;20034;-62
2022/06/03 02:06:40;;;;;;;8.30;7.05;;;;;;;15.25;nan;99060.16;4993520;28;20077;-62
2022/06/03 02:09:37;;;;;;;6.43;5.93;;;;;;;15.16;nan;99055.25;4990225;28;20037;-62
2022/06/03 02:12:28;;;;;;;7.57;6.97;;;;;;;15.19;nan;99060.31;4993406;28;20076;-64
2022/06/03 02:15:09;;;;;;;7.93;7.22;;;;;;;15.14;nan;99062.22;4983652;28;20051;-62
2022/06/03 02:17:51;;;;;;;6.75;6.30;;;;;;;14.98;nan;99050.66;4991465;28;20038;-62
2022/06/03 02:20:38;;;;;;;6.75;6.15;;;;;;;14.96;nan;99052.44;4994896;28;20046;-61
2022/06/03 02:23:32;;;;;;;10.50;7.43;;;;;;;14.86;nan;99056.19;4994483;28;20029;-62
2022/06/03 02:26:21;;;;;;;7.85;7.25;;;;;;;14.78;nan;99063.31;4989920;28;20034;-62
2022/06/03 02:32:47;;;;;;;7.70;7.07;;;;;;;14.74;nan;99056.53;4995073;28;20077;-62
2022/06/03 02:35:31;;;;;;;9.52;8.05;;;;;;;14.74;nan;99051.38;4992640;28;20533;-62
2022/06/03 02:38:22;;;;;;;8.32;7.55;;;;;;;14.72;nan;99048.00;4990746;28;20034;-62
2022/06/03 02:41:18;;;;;;;7.45;6.85;;;;;;;14.72;nan;99048.00;4990042;28;20037;-62
2022/06/03 02:44:20;;;;;;;10.68;7.35;;;;;;;14.69;nan;99043.75;4991148;28;20049;-62
2022/06/03 02:47:23;;;;;;;9.52;7.32;;;;;;;14.66;nan;99053.34;4989110;28;20060;-62
2022/06/03 02:49:57;;;;;;;10.30;7.28;;;;;;;14.59;nan;99047.53;4995290;28;20077;-62
2022/06/03 02:52:50;;;;;;;7.75;6.85;;;;;;;14.50;nan;99047.78;4993726;28;20036;-62
2022/06/03 02:55:15;;;;;;;8.75;7.90;;;;;;;14.58;nan;99051.84;4989501;28;20072;-61
2022/06/03 02:58:17;;;;;;;8.35;7.55;;;;;;;14.62;nan;99052.59;4992734;28;20214;-62
2022/06/03 03:01:02;;;;;;;7.70;7.10;;;;;;;14.56;nan;99050.16;4995834;28;20035;-62
2022/06/03 03:03:41;;;;;;;11.23;7.82;;;;;;;14.40;nan;99051.50;4990861;28;20058;-61
2022/06/03 03:06:28;;;;;;;7.90;7.10;;;;;;;14.34;nan;99049.88;4989689;28;20073;-61
2022/06/03 03:09:24;;;;;;;8.25;7.57;;;;;;;14.22;nan;99052.78;4989996;28;20026;-61
2022/06/03 03:12:27;;;;;;;7.88;7.18;;;;;;;14.22;nan;99049.38;4989660;28;20040;-61
2022/06/03 03:15:19;;;;;;;9.55;8.65;;;;;;;14.15;nan;99041.81;4989758;28;20947;-62
2022/06/03 03:18:02;;;;;;;9.02;8.32;;;;;;;14.15;nan;99053.84;4994483;28;20038;-62
2022/06/03 03:20:51;;;;;;;8.73;7.95;;;;;;;14.12;nan;99066.84;4990065;28;20038;-61
2022/06/03 03:23:21;;;;;;;8.65;7.85;;;;;;;14.21;nan;99065.75;4954200;28;20047;-61
2022/06/03 03:26:01;;;;;;;9.50;8.50;;;;;;;14.23;nan;99061.38;4954758;28;20047;-62
2022/06/03 03:28:38;;;;;;;9.57;8.00;;;;;;;14.22;nan;99070.84;4956459;28;20042;-61
2022/06/03 03:31:34;;;;;;;8.88;8.18;;;;;;;14.16;nan;99065.88;4953406;28;20163;-61
2022/06/03 03:34:18;;;;;;;9.70;8.82;;;;;;;14.26;nan;99071.63;4953918;28;20043;-61
2022/06/03 03:37:14;;;;;;;10.50;9.60;;;;;;;14.30;nan;99078.41;4953599;28;20624;-62
2022/06/03 03:40:05;;;;;;;8.85;7.68;;;;;;;14.32;nan;99074.03;4951480;28;20035;-63
2022/06/03 03:43:13;;;;;;;8.70;8.00;;;;;;;14.40;nan;99079.88;4951615;28;20043;-63
2022/06/03 03:45:59;;;;;;;8.95;8.15;;;;;;;14.44;nan;99082.31;4943702;28;20497;-62
2022/06/03 03:48:48;;;;;;;9.43;8.55;;;;;;;14.59;nan;99081.06;4957469;28;20505;-63
2022/06/03 03:51:14;;;;;;;9.82;8.88;;;;;;;14.68;nan;99088.56;4951812;28;20473;-62
2022/06/03 03:54:24;;;;;;;10.15;9.02;;;;;;;14.87;nan;99084.53;4938601;28;20047;-62
2022/06/03 03:57:27;;;;;;;9.35;8.57;;;;;;;15.02;nan;99088.44;4957704;28;20456;-62
2022/06/03 04:00:12;;;;;;;8.93;8.13;;;;;;;14.99;nan;99067.84;4963275;28;20045;-62
2022/06/03 04:03:07;;;;;;;9.88;8.98;;;;;;;15.18;nan;99081.06;4988401;28;20677;-62
2022/06/03 04:05:45;;;;;;;13.57;9.43;;;;;;;15.37;nan;99100.25;4987315;28;20088;-62
2022/06/03 04:08:13;;;;;;;9.88;9.00;;;;;;;15.40;nan;99095.84;4988259;28;20049;-62
2022/06/03 04:11:00;;;;;;;12.18;9.52;;;;;;;15.57;nan;99102.28;4989682;28;20513;-62
2022/06/03 04:13:44;;;;;;;8.13;7.43;;;;;;;15.63;nan;99100.31;4992850;28;20038;-62
2022/06/03 04:16:28;;;;;;;9.13;7.93;;;;;;;15.78;nan;99096.41;4991671;28;20161;-62
2022/06/03 04:19:51;;;;;;;9.50;8.63;;;;;;;15.91;nan;99097.72;4989675;28;20045;-62
2022/06/03 04:22:47;;;;;;;8.73;8.00;;;;;;;15.93;nan;99091.56;4950005;28;20043;-62
2022/06/03 04:25:31;;;;;;;10.40;8.10;;;;;;;16.05;nan;99092.91;4953256;28;20038;-63
2022/06/03 04:28:33;;;;;;;9.30;7.70;;;;;;;16.28;nan;99094.72;4952173;28;20040;-61
2022/06/03 04:31:16;;;;;;;8.98;8.10;;;;;;;16.38;nan;99091.75;4951408;28;20035;-63
2022/06/03 04:34:15;;;;;;;7.93;7.32;;;;;;;16.55;nan;99091.16;4933154;28;20099;-61
2022/06/03 04:37:14;;;;;;;9.00;8.30;;;;;;;16.70;nan;99088.06;4932592;29;20038;-61
2022/06/03 04:39:54;;;;;;;7.85;7.22;;;;;;;16.83;nan;99083.28;4931641;29;20189;-61
2022/06/03 04:42:41;;;;;;;8.35;7.65;;;;;;;16.93;nan;99078.59;4934664;29;20565;-63
2022/06/03 04:45:43;;;;;;;8.88;8.13;;;;;;;17.22;nan;99092.13;4933290;29;20043;-62
2022/06/03 04:48:41;;;;;;;8.65;7.97;;;;;;;17.52;nan;99097.88;4931252;29;20544;-62
2022/06/03 04:51:42;;;;;;;9.38;8.57;;;;;;;17.67;nan;99093.84;4931073;29;20591;-61
2022/06/03 04:54:45;;;;;;;10.60;7.65;;;;;;;17.80;nan;99097.63;4947121;28;20047;-61
2022/06/03 04:57:35;;;;;;;7.45;6.78;;;;;;;18.01;nan;99101.94;4950294;28;20027;-62
2022/06/03 05:00:03;;;;;;;8.40;7.60;;;;;;;18.21;nan;99098.50;4953444;28;20034;-61
2022/06/03 05:03:06;;;;;;;8.13;7.45;;;;;;;18.40;nan;99099.41;4951641;28;20054;-60
2022/06/03 05:05:31;;;;;;;7.68;6.93;;;;;;;18.61;nan;99102.88;4949579;28;20034;-62
2022/06/03 05:08:02;;;;;;;7.05;6.47;;;;;;;18.82;nan;99109.69;4948767;28;20066;-62
2022/06/03 05:11:05;;;;;;;7.25;6.70;;;;;;;18.77;nan;99103.88;4952819;28;20611;-58
2022/06/03 05:14:18;;;;;;;7.40;6.68;;;;;;;18.87;nan;99099.09;4948693;28;20105;-69
2022/06/03 05:17:21;;;;;;;7.40;6.78;;;;;;;19.10;nan;99107.53;4949651;28;20051;-69
2022/06/03 05:20:10;;;;;;;7.43;6.82;;;;;;;19.12;nan;99100.53;4951670;28;20546;-69
2022/06/03 05:22:41;;;;;;;7.32;6.72;;;;;;;19.13;nan;99101.38;4947699;28;20397;-70
2022/06/03 05:25:24;;;;;;;5.93;5.45;;;;;;;19.18;nan;99109.78;4949874;28;20031;-68
2022/06/03 05:28:05;;;;;;;9.50;7.10;;;;;;;19.14;nan;99108.22;4954453;28;20053;-67
2022/06/03 05:30:45;;;;;;;7.53;6.88;;;;;;;19.18;nan;99104.56;4955194;28;20601;-68
2022/06/03 05:33:25;;;;;;;6.10;5.70;;;;;;;19.25;nan;99106.00;4981059;28;20064;-68
2022/06/03 05:36:04;;;;;;;6.43;5.82;;;;;;;19.39;nan;99106.16;5006092;28;20610;-69
2022/06/03 05:39:06;;;;;;;6.50;6.00;;;;;;;19.58;nan;99104.44;4991911;28;20038;-68
2022/06/03 05:45:08;;;;;;;6.15;5.65;;;;;;;19.71;nan;99115.09;4991530;28;20097;-69
2022/06/03 05:47:49;;;;;;;6.00;5.50;;;;;;;19.70;nan;99102.16;4997257;28;20651;-70
2022/06/03 05:50:22;;;;;;;6.03;5.40;;;;;;;19.85;nan;99107.47;4991905;28;20539;-69
2022/06/03 05:53:23;;;;;;;6.95;5.57;;;;;;;20.04;nan;99110.84;4993570;28;20100;-69
2022/06/03 05:56:13;;;;;;;6.07;5.25;;;;;;;20.14;nan;99108.63;4974694;28;20061;-69
2022/06/03 05:58:59;;;;;;;6.13;5.50;;;;;;;19.93;nan;99102.72;4997276;28;20524;-70
2022/06/03 06:01:59;;;;;;;5.35;4.82;;;;;;;20.00;nan;99098.91;4995057;28;20142;-69
2022/06/03 06:04:30;;;;;;;4.68;4.28;;;;;;;19.96;nan;99084.34;4991314;28;20026;-69
2022/06/03 06:07:07;;;;;;;5.70;5.00;;;;;;;20.18;nan;99099.75;4993276;28;20538;-69
2022/06/03 06:10:05;;;;;;;4.78;4.43;;;;;;;20.39;nan;99097.84;4995683;28;20030;-70
2022/06/03 06:12:49;;;;;;;4.20;3.80;;;;;;;20.48;nan;99081.75;4921013;29;20511;-70
2022/06/03 06:15:41;;;;;;;5.15;4.22;;;;;;;20.70;nan;99092.72;4936185;29;20704;-70
2022/06/03 06:18:10;;;;;;;4.75;3.80;;;;;;;20.86;nan;99084.94;4920438;29;20409;-70
2022/06/03 06:21:03;;;;;;;4.20;3.80;;;;;;;20.79;nan;99081.78;4935554;29;20130;-68
2022/06/03 06:23:31;;;;;;;5.97;4.13;;;;;;;20.88;nan;99077.84;4938434;29;20055;-65
2022/06/03 06:26:11;;;;;;;4.53;4.13;;;;;;;20.94;nan;99074.94;4925188;29;20102;-70
2022/06/03 06:28:55;;;;;;;5.03;4.63;;;;;;;20.82;nan;99076.44;4935876;28;20050;-70
2022/06/03 06:31:23;;;;;;;4.45;4.15;;;;;;;20.70;nan;99064.06;4936693;29;20172;-70
2022/06/03 06:34:19;;;;;;;4.07;3.78;;;;;;;20.87;nan;99066.63;4922598;29;20063;-71
2022/06/03 06:37:18;;;;;;;4.32;4.07;;;;;;;20.96;nan;99060.88;4921060;29;20047;-71
2022/06/03 06:39:46;;;;;;;4.30;3.92;;;;;;;21.10;nan;99061.91;4919415;29;20040;-70
2022/06/03 06:42:28;;;;;;;4.43;4.03;;;;;;;21.20;nan;99065.72;4921297;29;20052;-70
2022/06/03 06:45:36;;;;;;;3.88;3.50;;;;;;;21.33;nan;99062.34;4924296;29;20479;-70
2022/06/03 06:48:31;;;;;;;5.03;4.63;;;;;;;21.45;nan;99042.56;4918966;29;20070;-71
2022/06/03 06:51:02;;;;;;;4.13;3.83;;;;;;;21.11;nan;99029.69;4951031;28;20158;-71
2022/06/03 06:53:46;;;;;;;4.10;3.72;;;;;;;21.36;nan;99049.13;4954675;28;20037;-71
2022/06/03 06:56:28;;;;;;;4.55;3.40;;;;;;;21.52;nan;99043.03;4951549;28;20164;-71
2022/06/03 06:58:59;;;;;;;4.93;3.25;;;;;;;21.67;nan;99034.34;4951144;28;20368;-71
2022/06/03 07:01:35;;;;;;;4.20;3.28;;;;;;;21.82;nan;99034.28;4953790;28;20492;-72
2022/06/03 07:04:14;;;;;;;4.85;3.00;;;;;;;21.87;nan;99041.84;4956041;28;20065;-71
2022/06/03 07:06:53;;;;;;;3.42;2.97;;;;;;;21.98;nan;99034.25;4953117;28;20102;-71
2022/06/03 07:09:41;;;;;;;3.53;3.22;;;;;;;22.11;nan;99034.38;4952805;28;20035;-71
2022/06/03 07:12:14;;;;;;;3.80;3.50;;;;;;;22.21;nan;99038.97;4954841;28;20022;-71
2022/06/03 07:14:55;;;;;;;3.50;3.20;;;;;;;22.27;nan;99032.56;4957119;28;20101;-71
2022/06/03 07:20:35;;;;;;;3.45;3.25;;;;;;;22.52;nan;99026.69;4952559;28;20062;-70
2022/06/03 07:23:19;;;;;;;3.88;3.03;;;;;;;22.65;nan;99025.84;4954110;28;20138;-71
2022/06/03 07:25:47;;;;;;;3.80;3.50;;;;;;;22.66;nan;99022.25;4952845;28;20485;-71
2022/06/03 07:28:31;;;;;;;4.00;3.50;;;;;;;22.71;nan;99016.78;4964406;28;20763;-71
2022/06/03 07:31:04;;;;;;;4.53;3.22;;;;;;;22.91;nan;99026.00;4954370;28;20066;-71
2022/06/03 07:33:30;;;;;;;3.30;2.90;;;;;;;23.03;nan;99020.84;4985952;28;20062;-71
2022/06/03 07:36:18;;;;;;;3.30;3.13;;;;;;;23.14;nan;99013.16;4990784;28;20106;-64
2022/06/03 07:38:55;;;;;;;3.95;3.13;;;;;;;23.18;nan;99008.56;4991510;28;20034;-64
2022/06/03 07:41:32;;;;;;;3.67;3.38;;;;;;;23.19;nan;99007.63;4993594;28;20045;-61
2022/06/03 07:44:11;;;;;;;3.50;3.17;;;;;;;23.14;nan;98984.38;4993886;28;20026;-61
2022/06/03 07:46:49;;;;;;;7.78;3.92;;;;;;;23.32;nan;98982.34;4992344;28;20748;-61
2022/06/03 07:49:16;;;;;;;3.58;3.13;;;;;;;23.63;nan;98992.53;5006244;28;20061;-61
2022/06/03 07:51:47;;;;;;;3.80;3.53;;;;;;;23.59;nan;98977.13;4992154;28;20057;-61
2022/06/03 07:54:32;;;;;;;3.05;2.75;;;;;;;23.78;nan;98987.19;4988758;28;20026;-61
2022/06/03 07:57:05;;;;;;;3.10;2.90;;;;;;;23.77;nan;98975.03;4988461;28;20042;-60
2022/06/03 07:59:34;;;;;;;4.75;3.10;;;;;;;23.79;nan;98968.75;4995136;28;20030;-61
2022/06/03 08:02:05;;;;;;;3.38;3.10;;;;;;;23.86;nan;98963.94;4991532;28;20108;-61
2022/06/03 08:04:31;;;;;;;3.55;3.15;;;;;;;24.06;nan;98968.69;4989397;28;20084;-61
2022/06/03 08:12:30;;;;;;;3.80;3.10;;;;;;;23.81;nan;98963.41;4992606;28;20041;-62
2022/06/03 08:14:56;;;;;;;5.63;3.55;;;;;;;23.92;nan;98969.59;4988186;28;20056;-62
2022/06/03 08:17:24;;;;;;;3.10;2.90;;;;;;;23.91;nan;98974.94;4988882;28;20062;-61
2022/06/03 08:19:50;;;;;;;3.47;3.08;;;;;;;24.07;nan;98994.75;5000751;28;20125;-62
2022/06/03 08:22:20;;;;;;;5.13;3.83;;;;;;;24.04;nan;98983.66;4991174;28;20034;-61
2022/06/03 08:24:52;;;;;;;3.55;3.35;;;;;;;24.06;nan;98987.81;4989186;28;20108;-61
2022/06/03 08:27:23;;;;;;;3.50;3.20;;;;;;;24.07;nan;98975.56;4992217;28;20038;-61
2022/06/03 08:29:57;;;;;;;3.40;3.10;;;;;;;24.14;nan;98982.09;4994396;28;20144;-60
2022/06/03 08:32:30;;;;;;;3.92;3.45;;;;;;;24.32;nan;98972.13;4987298;28;20328;-61
2022/06/03 08:34:59;;;;;;;4.50;3.50;;;;;;;24.49;nan;98956.06;4990527;28;20049;-61
2022/06/03 08:37:34;;;;;;;4.03;3.72;;;;;;;24.65;nan;98961.06;4993473;28;20036;-61
2022/06/03 08:40:02;;;;;;;3.80;3.55;;;;;;;24.65;nan;98972.41;4992250;28;20057;-62
2022/06/03 08:42:32;;;;;;;3.55;3.17;;;;;;;24.68;nan;98961.69;4988199;28;20551;-61
2022/06/03 08:45:12;;;;;;;4.32;3.90;;;;;;;24.70;nan;98972.03;4991306;28;20538;-60
2022/06/03 08:47:48;;;;;;;4.50;3.95;;;;;;;24.86;nan;98960.41;4993578;28;20049;-60
2022/06/03 08:50:32;;;;;;;4.63;4.22;;;;;;;25.04;nan;98966.09;4990353;28;20038;-60
2022/06/03 08:53:31;;;;;;;3.70;3.50;;;;;;;25.00;nan;98975.13;4988348;28;20582;-60
2022/06/03 08:56:03;;;;;;;4.40;4.03;;;;;;;24.94;nan;98971.19;4992133;28;20272;-60
2022/06/03 08:58:34;;;;;;;3.70;3.50;;;;;;;25.06;nan;98958.97;4992335;28;20392;-60
2022/06/03 09:01:22;;;;;;;5.10;3.55;;;;;;;25.03;nan;98953.94;4988916;28;20250;-60
2022/06/03 09:03:52;;;;;;;3.97;3.70;;;;;;;25.08;nan;98949.16;4988549;28;20037;-62
2022/06/03 09:06:39;;;;;;;3.78;3.47;;;;;;;25.28;nan;98953.81;4995507;28;20030;-68
2022/06/03 09:09:19;;;;;;;4.13;3.83;;;;;;;25.35;nan;98955.03;4991130;28;20034;-67
2022/06/03 09:11:53;;;;;;;3.28;3.08;;;;;;;25.52;nan;98947.69;4990088;28;20563;-68
2022/06/03 09:14:22;;;;;;;4.20;3.80;;;;;;;25.66;nan;98935.22;4991070;28;20446;-68
2022/06/03 09:16:52;;;;;;;4.30;3.90;;;;;;;25.72;nan;98939.16;4994822;28;20045;-67
2022/06/03 09:19:28;;;;;;;4.32;3.75;;;;;;;25.73;nan;98928.53;4990643;28;20044;-67
2022/06/03 09:21:55;;;;;;;6.13;3.53;;;;;;;25.70;nan;98933.19;4992176;28;20061;-67
2022/06/03 09:24:24;;;;;;;4.22;3.83;;;;;;;25.66;nan;98942.25;4994539;28;20506;-67
2022/06/03 09:26:56;;;;;;;4.22;3.83;;;;;;;25.70;nan;98922.69;4994524;28;20045;-67
2022/06/03 09:29:23;;;;;;;3.78;3.58;;;;;;;25.92;nan;98909.59;4992533;28;20395;-67
2022/06/03 09:31:51;;;;;;;4.18;3.88;;;;;;;25.99;nan;98909.94;4995590;28;20486;-66
2022/06/03 09:34:32;;;;;;;3.92;3.63;;;;;;;26.22;nan;98925.66;4998023;28;20124;-66
2022/06/03 09:36:59;;;;;;;4.03;3.83;;;;;;;26.27;nan;98917.38;5002527;28;20493;-67
2022/06/03 09:39:25;;;;;;;4.95;4.20;;;;;;;26.26;nan;98908.66;4993051;28;20084;-67
2022/06/03 09:41:57;;;;;;;5.22;4.78;;;;;;;26.31;nan;98913.53;4995185;28;20049;-68
2022/06/03 09:44:25;;;;;;;4.00;3.70;;;;;;;26.10;nan;98904.69;4996970;28;20061;-67
2022/06/03 09:47:03;;;;;;;5.18;4.70;;;;;;;26.30;nan;98911.88;4991876;28;20034;-67
2022/06/03 09:49:30;;;;;;;4.65;4.20;;;;;;;26.45;nan;98917.72;4991927;28;20157;-67
2022/06/03 09:51:56;;;;;;;5.13;4.75;;;;;;;26.52;nan;98913.66;4995359;28;20030;-67
2022/06/03 09:54:30;;;;;;;4.35;3.95;;;;;;;26.54;nan;98912.56;4995112;28;20351;-68
2022/06/03 09:57:06;;;;;;;4.55;4.22;;;;;;;26.72;nan;98900.56;4990994;28;20452;-68
2022/06/03 09:59:35;;;;;;;4.53;4.22;;;;;;;26.94;nan;98915.50;4994193;28;20101;-68
2022/06/03 10:02:02;;;;;;;6.70;4.72;;;;;;;26.94;nan;98907.59;4997252;28;20042;-68
2022/06/03 10:04:27;;;;;;;4.70;4.18;;;;;;;27.03;nan;98917.34;4993928;28;20540;-68
2022/06/03 10:06:54;;;;;;;6.38;5.78;;;;;;;27.09;nan;98914.22;4990961;28;20034;-68
2022/06/03 10:17:49;;;;;;;5.13;4.72;;;;;;;27.13;nan;98905.13;4991109;28;20057;-68
2022/06/03 10:20:16;;;;;;;5.00;4.18;;;;;;;27.17;nan;98905.69;4991274;28;20108;-68
2022/06/03 10:22:44;;;;;;;4.40;3.50;;;;;;;27.41;nan;98905.47;4994765;28;20025;-69
2022/06/03 10:25:10;;;;;;;3.85;3.65;;;;;;;27.53;nan;98905.31;4991525;28;20046;-69
2022/06/03 10:27:36;;;;;;;4.13;3.90;;;;;;;27.61;nan;98892.34;4992191;28;20034;-69
2022/06/03 10:30:03;;;;;;;4.03;3.72;;;;;;;27.64;nan;98889.44;4993988;28;20950;-70
2022/06/03 10:32:29;;;;;;;4.43;3.67;;;;;;;27.51;nan;98887.97;4991924;28;20487;-66
2022/06/03 10:35:12;;;;;;;4.13;3.75;;;;;;;27.74;nan;98888.66;4990862;28;20047;-68
2022/06/03 10:37:46;;;;;;;4.38;4.07;;;;;;;27.74;nan;98883.38;4997486;28;20496;-65
2022/06/03 10:40:14;;;;;;;3.95;3.75;;;;;;;27.92;nan;98880.00;4994272;28;20567;-65
2022/06/03 10:42:40;;;;;;;4.13;3.83;;;;;;;28.08;nan;98874.25;4991561;28;20077;-67
2022/06/03 10:45:08;;;;;;;3.97;3.67;;;;;;;28.16;nan;98882.34;4990938;28;20116;-67
2022/06/03 10:47:39;;;;;;;4.85;4.13;;;;;;;27.98;nan;98887.38;4988640;28;20041;-67
2022/06/03 10:50:38;;;;;;;4.20;4.00;;;;;;;27.98;nan;98876.84;4990928;28;20038;-68
2022/06/03 11:01:48;;;;;;;4.55;4.25;;;;;;;28.19;nan;98846.97;4989160;28;20044;-66
2022/06/03 11:04:29;;;;;;;4.85;4.55;;;;;;;28.08;nan;98864.53;4989089;28;20035;-67
2022/06/03 11:06:58;;;;;;;4.53;4.22;;;;;;;28.36;nan;98844.50;4994663;28;20032;-68
2022/06/03 11:09:24;;;;;;;4.05;3.75;;;;;;;28.42;nan;98858.97;4993409;28;20030;-69
2022/06/03 11:11:57;;;;;;;4.63;4.32;;;;;;;28.44;nan;98843.81;4988872;28;20491;-69
2022/06/03 11:14:27;;;;;;;6.07;4.65;;;;;;;28.28;nan;98846.16;4991031;28;20030;-67
2022/06/03 11:17:40;;;;;;;4.68;4.38;;;;;;;28.07;nan;98839.13;4994338;28;20370;-68
2022/06/03 11:20:29;;;;;;;4.22;3.92;;;;;;;28.32;nan;98831.72;4991729;28;20084;-69
2022/06/03 11:22:56;;;;;;;4.70;4.30;;;;;;;28.45;nan;98832.31;4988797;28;20034;-67
2022/06/03 11:25:28;;;;;;;4.05;3.75;;;;;;;28.33;nan;98828.13;4992341;28;20149;-69
2022/06/03 11:28:02;;;;;;;4.45;4.25;;;;;;;28.32;nan;98821.19;4993392;28;20038;-68
2022/06/03 11:30:36;;;;;;;4.27;3.97;;;;;;;28.39;nan;98815.22;4988934;28;20056;-69
2022/06/03 11:33:07;;;;;;;5.10;3.97;;;;;;;28.46;nan;98813.72;4988200;28;20285;-68
2022/06/03 11:35:43;;;;;;;5.63;3.83;;;;;;;28.40;nan;98798.41;4995561;28;20040;-67
2022/06/03 11:38:13;;;;;;;4.45;4.05;;;;;;;28.42;nan;98793.03;4993231;28;20392;-69
2022/06/03 11:40:44;;;;;;;5.10;4.80;;;;;;;28.55;nan;98781.22;4988231;28;20597;-68
2022/06/03 11:43:19;;;;;;;4.30;3.95;;;;;;;28.59;nan;98781.78;4991796;28;20037;-69
2022/06/03 11:45:53;;;;;;;7.05;4.85;;;;;;;28.43;nan;98784.16;4994878;28;20050;-67
2022/06/03 11:48:21;;;;;;;;;;;;;;;28.71;nan;98788.63;4991222;28;20128;-67
2022/06/03 11:50:47;;;;;;;4.05;3.67;;;;;;;28.83;nan;98787.50;4988264;28;19974;-64
2022/06/03 11:53:15;;;;;;;4.68;4.38;;;;;;;28.81;nan;98780.72;4992776;28;20460;-66
2022/06/03 11:55:42;;;;;;;4.78;4.57;;;;;;;28.74;nan;98785.69;4994120;28;20061;-67
2022/06/03 11:58:18;;;;;;;5.43;4.93;;;;;;;28.77;nan;98769.56;4990467;28;20038;-67
2022/06/03 12:00:49;;;;;;;4.15;3.95;;;;;;;28.67;nan;98776.66;5004199;28;20050;-67
2022/06/03 12:03:33;;;;;;;5.30;4.97;;;;;;;28.73;nan;98764.75;4988455;28;20076;-63
2022/06/03 12:06:06;;;;;;;4.60;4.30;;;;;;;28.72;nan;98769.19;4989391;28;20038;-60
2022/06/03 12:09:00;;;;;;;4.10;3.90;;;;;;;28.66;nan;98759.13;5007694;28;20550;-62
2022/06/03 12:14:24;;;;;;;4.63;4.25;;;;;;;28.72;nan;98750.72;4989017;28;20423;-61
2022/06/03 12:17:22;;;;;;;4.10;3.90;;;;;;;28.98;nan;98758.88;4991160;28;20042;-61
2022/06/03 12:19:50;;;;;;;5.18;4.72;;;;;;;28.97;nan;98749.28;4959082;28;20044;-60
2022/06/03 12:22:18;;;;;;;4.78;4.47;;;;;;;28.95;nan;98738.84;4987605;28;20042;-60
2022/06/03 12:24:47;;;;;;;4.00;3.65;;;;;;;28.87;nan;98741.38;4988374;28;20030;-61
2022/06/03 12:27:18;;;;;;;5.22;4.40;;;;;;;28.82;nan;98748.88;4992121;28;20038;-61
2022/06/03 12:29:55;;;;;;;4.57;4.15;;;;;;;28.85;nan;98738.06;4998172;28;20034;-60
2022/06/03 12:32:28;;;;;;;5.15;4.18;;;;;;;28.92;nan;98736.50;4987545;28;20090;-60
2022/06/03 12:35:32;;;;;;;4.15;3.85;;;;;;;29.25;nan;98731.69;4990435;28;20076;-61
2022/06/03 12:38:19;;;;;;;4.28;4.07;;;;;;;29.41;nan;98732.75;4991082;28;20030;-61
2022/06/03 12:40:45;;;;;;;4.25;3.95;;;;;;;29.32;nan;98738.91;4986955;28;20129;-62
2022/06/03 12:43:51;;;;;;;4.68;4.40;;;;;;;29.18;nan;98727.97;4989685;28;20037;-63
2022/06/03 12:46:43;;;;;;;4.38;3.90;;;;;;;29.55;nan;98739.38;4983637;28;20476;-59
2022/06/03 12:49:34;;;;;;;4.70;4.38;;;;;;;29.73;nan;98737.63;4990989;28;20046;-62
2022/06/03 12:52:07;;;;;;;5.15;4.75;;;;;;;29.50;nan;98744.28;4988793;28;20147;-62
2022/06/03 12:54:36;;;;;;;4.10;3.78;;;;;;;29.67;nan;98734.72;4991334;28;20157;-60
2022/06/03 12:57:12;;;;;;;4.30;4.10;;;;;;;29.50;nan;98729.25;4993925;28;20044;-62
2022/06/03 12:59:52;;;;;;;4.40;4.20;;;;;;;29.54;nan;98734.22;4988967;28;20034;-61
2022/06/03 13:02:21;;;;;;;4.95;4.40;;;;;;;29.56;nan;98727.00;4989990;28;20097;-62
2022/06/03 13:04:52;;;;;;;4.63;4.25;;;;;;;29.36;nan;98723.63;4993806;28;20492;-62
2022/06/03 13:07:27;;;;;;;4.85;4.45;;;;;;;29.55;nan;98734.09;5007669;28;20044;-62
2022/06/03 13:10:04;;;;;;;;;;;;;;;29.61;nan;98736.16;4988066;28;20034;-63
2022/06/03 13:12:32;;;;;;;4.53;4.15;;;;;;;29.96;nan;98739.91;4991927;28;19928;-63
2022/06/03 13:15:16;;;;;;;6.30;5.13;;;;;;;29.99;nan;98732.50;4993723;28;20114;-63
2022/06/03 13:20:36;;;;;;;5.05;4.55;;;;;;;30.07;nan;98722.00;4987336;28;20062;-63
2022/06/03 13:23:02;;;;;;;5.05;4.75;;;;;;;30.29;nan;98707.53;4992662;28;20397;-63
2022/06/03 13:25:31;;;;;;;4.53;4.22;;;;;;;30.43;nan;98706.16;4988138;28;20038;-63
2022/06/03 13:28:24;;;;;;;4.80;4.38;;;;;;;30.12;nan;98718.94;4987837;28;20477;-63
2022/06/03 13:31:19;;;;;;;4.35;4.10;;;;;;;29.81;nan;98706.00;4987112;28;20400;-62
2022/06/03 13:34:10;;;;;;;4.50;4.20;;;;;;;30.02;nan;98715.50;4986933;28;20054;-65